Time,TemperatureF,DewpointF,PressureIn,WindDirection,WindDirectionDegrees,WindSpeedMPH,WindSpeedGustMPH,Humidity,HourlyPrecipIn,Conditions,Clouds,dailyrainin,SoftwareType,DateUTC
2013-08-06 00:29:00,66.0,63.3,30.03,West,260,0.0,0.0,91,0.00,,BKN046,0.00,VWS V14.01,2013-08-06 04:29:00,
2013-08-06 00:59:00,66.1,63.7,30.03,West,260,0.0,0.0,92,0.00,,BKN046,0.00,VWS V14.01,2013-08-06 04:59:00,
2013-08-06 01:29:00,66.0,63.6,30.03,West,260,0.0,0.0,92,0.00,,OVC055,0.00,VWS V14.01,2013-08-06 05:29:00,
2013-08-06 01:59:00,66.1,64.0,30.02,West,260,0.0,0.0,93,0.02,,OVC055,0.02,VWS V14.01,2013-08-06 05:59:00,
2013-08-06 02:29:00,65.8,64.6,30.01,West,260,0.0,0.0,96,0.02,,BKN080,0.02,VWS V14.01,2013-08-06 06:29:00,
2013-08-06 02:59:00,65.6,64.7,30.00,West,260,0.0,0.0,97,0.02,,BKN080,0.02,VWS V14.01,2013-08-06 06:59:00,
2013-08-06 03:29:00,65.6,65.0,30.00,West,260,0.0,0.0,98,0.00,,BKN048,0.02,VWS V14.01,2013-08-06 07:29:00,
2013-08-06 03:59:00,65.6,65.0,30.00,West,260,0.0,0.0,98,0.00,,BKN048,0.02,VWS V14.01,2013-08-06 07:59:00,
2013-08-06 04:29:00,65.6,65.0,29.99,West,260,0.0,0.0,98,0.00,,OVC060,0.02,VWS V14.01,2013-08-06 08:29:00,
2013-08-06 04:59:00,65.3,65.0,29.98,West,260,0.0,1.0,99,0.00,,OVC060,0.02,VWS V14.01,2013-08-06 08:59:00,
2013-08-06 05:29:00,64.8,64.2,29.99,West,265,0.0,0.0,98,0.00,,OVC046,0.02,VWS V14.01,2013-08-06 09:29:00,
2013-08-06 05:59:00,64.7,64.1,30.00,West,265,0.0,0.0,98,0.00,,OVC046,0.02,VWS V14.01,2013-08-06 09:59:00,
2013-08-06 06:29:00,64.5,63.9,30.00,West,265,0.0,0.0,98,0.00,,OVC055,0.02,VWS V14.01,2013-08-06 10:29:00,
2013-08-06 06:59:00,64.7,64.4,30.00,West,265,0.0,0.0,99,0.00,,OVC055,0.02,VWS V14.01,2013-08-06 10:59:00,
2013-08-06 07:29:00,64.8,64.5,30.01,West,265,0.0,0.0,99,0.06,,-RA,0.08,VWS V14.01,2013-08-06 11:29:00,
2013-08-06 07:59:00,65.0,65.0,30.02,West,265,0.0,0.0,100,0.07,,-RA,0.09,VWS V14.01,2013-08-06 11:59:00,
2013-08-06 08:29:00,65.5,65.5,30.02,West,265,0.0,0.0,100,0.08,,-RA,0.10,VWS V14.01,2013-08-06 12:29:00,
2013-08-06 08:59:00,66.8,66.8,30.02,WSW,246,0.0,3.0,100,0.02,,-RA,0.10,VWS V14.01,2013-08-06 12:59:00,
2013-08-06 09:29:00,67.1,66.8,30.02,WSW,246,0.0,2.0,99,0.01,,BKN120,0.10,VWS V14.01,2013-08-06 13:29:00,
2013-08-06 09:59:00,67.8,67.2,30.05,WSW,246,0.0,0.0,98,0.00,,BKN120,0.10,VWS V14.01,2013-08-06 13:59:00,
2013-08-06 10:29:00,68.1,67.5,30.04,WSW,246,0.0,0.0,98,0.00,,OVC014,0.10,VWS V14.01,2013-08-06 14:29:00,
2013-08-06 10:59:00,68.9,66.8,30.04,WSW,251,0.0,1.0,93,0.00,,OVC014,0.10,VWS V14.01,2013-08-06 14:59:00,
2013-08-06 11:29:00,70.3,67.2,30.05,WSW,251,0.0,0.0,90,0.00,,OVC035,0.10,VWS V14.01,2013-08-06 15:29:00,
2013-08-06 11:59:00,70.6,67.2,30.05,WSW,251,0.0,1.0,89,0.00,,OVC035,0.10,VWS V14.01,2013-08-06 15:59:00,
2013-08-06 12:29:00,71.8,67.4,30.05,SW,223,0.0,5.0,86,0.00,,OVC042,0.10,VWS V14.01,2013-08-06 16:29:00,
2013-08-06 12:59:00,73.3,68.2,30.04,SW,217,0.0,2.0,84,0.00,,OVC042,0.10,VWS V14.01,2013-08-06 16:59:00,
2013-08-06 13:29:00,73.3,67.8,30.05,SW,217,0.0,3.0,83,0.00,,OVC036,0.10,VWS V14.01,2013-08-06 17:29:00,
2013-08-06 13:59:00,74.2,69.1,30.04,WSW,248,1.0,5.0,84,0.00,,OVC036,0.10,VWS V14.01,2013-08-06 17:59:00,
2013-08-06 14:29:00,75.1,68.9,30.04,WSW,248,0.0,2.0,81,0.00,,BKN042,0.10,VWS V14.01,2013-08-06 18:29:00,
2013-08-06 14:59:00,75.8,69.2,30.03,WSW,240,1.0,3.0,80,0.00,,BKN042,0.10,VWS V14.01,2013-08-06 18:59:00,
2013-08-06 15:29:00,77.2,69.1,30.02,South,169,0.0,5.0,76,0.00,,OVC039,0.10,VWS V14.01,2013-08-06 19:29:00,
2013-08-06 15:59:00,77.4,69.2,30.02,SW,216,5.0,6.0,76,0.00,,OVC039,0.10,VWS V14.01,2013-08-06 19:59:00,
2013-08-06 16:29:00,77.0,69.6,30.03,SW,229,0.0,5.0,78,0.00,,OVC060,0.10,VWS V14.01,2013-08-06 20:29:00,
2013-08-06 16:59:00,77.2,70.2,30.03,South,186,1.0,5.0,79,0.00,,OVC060,0.10,VWS V14.01,2013-08-06 20:59:00,
2013-08-06 17:29:00,77.6,70.2,30.02,North,4,2.0,3.0,78,0.00,,BKN065,0.10,VWS V14.01,2013-08-06 21:29:00,
2013-08-06 17:59:00,77.0,70.4,30.02,East,92,0.0,5.0,80,0.00,,BKN065,0.10,VWS V14.01,2013-08-06 21:59:00,
2013-08-06 18:29:00,76.8,69.4,30.02,SSE,155,0.0,5.0,78,0.00,,SCT026,0.10,VWS V14.01,2013-08-06 22:29:00,
2013-08-06 18:59:00,76.3,70.4,30.02,East,99,0.0,3.0,82,0.00,,SCT026,0.10,VWS V14.01,2013-08-06 22:59:00,
2013-08-06 19:29:00,75.4,70.6,30.03,NW,326,0.0,2.0,85,0.00,,BKN070,0.10,VWS V14.01,2013-08-06 23:29:00,
2013-08-06 19:59:00,74.4,70.3,30.03,East,96,0.0,3.0,87,0.00,,BKN070,0.10,VWS V14.01,2013-08-06 23:59:00,
2013-08-06 20:29:00,73.3,69.9,30.03,East,90,0.0,4.0,89,0.00,,FEW070,0.10,VWS V14.01,2013-08-07 00:29:00,
2013-08-06 20:59:00,72.7,69.9,30.03,SE,141,0.0,2.0,91,0.00,,BKN040,0.10,VWS V14.01,2013-08-07 00:59:00,
2013-08-06 21:29:00,72.3,69.8,30.05,ENE,76,0.0,1.0,92,0.00,,SCT043,0.10,VWS V14.01,2013-08-07 01:29:00,
2013-08-06 21:59:00,71.5,70.0,30.05,ESE,119,0.0,4.0,95,0.02,,SCT043,0.12,VWS V14.01,2013-08-07 01:59:00,
2013-08-06 22:29:00,70.6,69.7,30.05,SSW,203,0.0,4.0,97,0.05,,BKN043,0.15,VWS V14.01,2013-08-07 02:29:00,
2013-08-06 22:59:00,70.1,69.5,30.05,SSW,202,0.0,2.0,98,0.05,,BKN043,0.15,VWS V14.01,2013-08-07 02:59:00,
2013-08-06 23:29:00,69.8,69.2,30.05,SSW,202,0.0,1.0,98,0.05,,OVC012,0.17,VWS V14.01,2013-08-07 03:29:00,
2013-08-06 23:59:00,69.6,69.3,30.05,SSW,202,0.0,7.0,99,0.45,,OVC012,0.60,VWS V14.01,2013-08-07 03:59:00,